createdAt,value
2019-04-13T00:00:30.639Z,94.89
2019-04-13T00:01:30.646Z,94.89
2019-04-13T00:02:30.664Z,95.07
2019-04-13T00:03:30.647Z,94.51
2019-04-13T00:04:30.680Z,94.98
2019-04-13T00:05:30.703Z,95.74
2019-04-13T00:06:30.688Z,95.74
2019-04-13T00:07:30.704Z,95.74
2019-04-13T00:08:30.705Z,96.69
2019-04-13T00:09:30.712Z,97.35
2019-04-13T00:10:30.736Z,97.35
2019-04-13T00:11:30.721Z,97.45
2019-04-13T00:12:30.736Z,97.64
2019-04-13T00:13:30.744Z,97.92
2019-04-13T00:14:30.750Z,97.64
2019-04-13T00:15:30.771Z,98.77
2019-04-13T00:16:30.778Z,98.77
2019-04-13T00:17:30.782Z,98.58
2019-04-13T00:18:30.787Z,98.58
2019-04-13T00:19:30.823Z,98.68
2019-04-13T00:20:30.830Z,98.87
2019-04-13T00:21:30.822Z,98.58
2019-04-13T00:22:30.860Z,98.87
2019-04-13T00:23:30.877Z,98.58
2019-04-13T00:24:30.900Z,99.06
2019-04-13T00:25:30.864Z,98.96
2019-04-13T00:26:30.867Z,99.06
2019-04-13T00:27:30.867Z,99.63
2019-04-13T00:28:30.883Z,99.63
2019-04-13T00:29:30.883Z,99.15
2019-04-13T00:30:30.911Z,97.64
2019-04-13T00:31:30.927Z,98.02
2019-04-13T00:32:30.928Z,98.96
2019-04-13T00:33:30.967Z,98.58
2019-04-13T00:34:40.919Z,99.63
2019-04-13T00:35:30.954Z,99.99
2019-04-13T00:36:30.973Z,99.63
2019-04-13T00:37:30.997Z,99.99
2019-04-13T00:38:30.993Z,99.99
2019-04-13T00:39:31.019Z,99.99
2019-04-13T00:40:30.995Z,99.99
2019-04-13T00:41:31.008Z,99.53
2019-04-13T00:42:31.013Z,99.99
2019-04-13T00:43:31.024Z,99.53
2019-04-13T00:44:31.027Z,99.15
2019-04-13T00:45:31.030Z,98.77
2019-04-13T00:46:31.046Z,99.63
2019-04-13T00:47:31.044Z,98.77
2019-04-13T00:48:31.049Z,98.68
2019-04-13T00:49:31.064Z,98.02
2019-04-13T00:50:31.078Z,98.11
2019-04-13T00:51:31.083Z,98.11
2019-04-13T00:52:31.083Z,98.11
2019-04-13T00:53:31.097Z,97.64
2019-04-13T00:54:31.122Z,97.64
2019-04-13T00:55:31.114Z,97.83
2019-04-13T00:56:31.130Z,97.64
2019-04-13T00:57:31.165Z,97.73
2019-04-13T00:58:31.159Z,97.64
2019-04-13T00:59:31.169Z,98.21
2019-04-13T01:00:31.181Z,98.21
2019-04-13T01:01:31.187Z,98.39
2019-04-13T01:02:31.197Z,98.44
2019-04-13T01:03:31.184Z,99.15
2019-04-13T01:04:31.208Z,99.10
2019-04-13T01:05:31.217Z,98.72
2019-04-13T01:06:31.223Z,98.72
2019-04-13T01:07:31.276Z,98.91
2019-04-13T01:08:31.234Z,98.72
2019-04-13T01:09:31.325Z,98.87
2019-04-13T01:10:31.305Z,98.72
2019-04-13T01:11:31.259Z,97.97
2019-04-13T01:12:31.280Z,98.54
2019-04-13T01:13:31.283Z,99.01
2019-04-13T01:14:31.281Z,99.48
2019-04-13T01:15:31.299Z,99.67
2019-04-13T01:16:31.306Z,99.20
2019-04-13T01:17:31.328Z,99.39
2019-04-13T01:18:31.341Z,99.01
2019-04-13T01:19:31.350Z,99.48
2019-04-13T01:20:31.348Z,99.58
2019-04-13T01:21:31.363Z,99.99
2019-04-13T01:22:31.356Z,99.99
2019-04-13T01:23:31.359Z,99.99
2019-04-13T01:24:31.379Z,99.99
2019-04-13T01:25:31.393Z,99.99
2019-04-13T01:26:31.403Z,99.99
2019-04-13T01:27:31.393Z,99.99
2019-04-13T01:28:31.424Z,99.99
2019-04-13T01:29:31.425Z,99.99
2019-04-13T01:30:31.424Z,99.99
2019-04-13T01:31:31.436Z,99.99
2019-04-13T01:32:31.465Z,99.99
2019-04-13T01:33:31.463Z,99.99
2019-04-13T01:34:31.456Z,99.99
2019-04-13T01:35:31.473Z,99.99
2019-04-13T01:36:31.491Z,99.99
2019-04-13T01:37:31.483Z,99.99
2019-04-13T01:38:31.515Z,99.99
2019-04-13T01:39:31.575Z,99.99
2019-04-13T01:40:31.539Z,99.99
2019-04-13T01:41:31.580Z,99.99
2019-04-13T01:42:31.942Z,99.99
2019-04-13T01:43:31.537Z,99.99
2019-04-13T01:45:31.620Z,99.99
2019-04-13T01:46:31.582Z,99.99
2019-04-13T01:47:31.595Z,99.99
2019-04-13T01:48:31.607Z,99.99
2019-04-13T01:49:31.609Z,99.99
2019-04-13T01:50:31.612Z,99.99
2019-04-13T01:51:31.609Z,99.99
2019-04-13T01:52:31.629Z,99.99
2019-04-13T01:53:31.644Z,99.99
2019-04-13T01:54:31.652Z,99.99
2019-04-13T01:55:31.646Z,99.99
2019-04-13T01:56:31.659Z,99.67
2019-04-13T01:57:31.693Z,99.10
2019-04-13T01:58:31.678Z,99.67
2019-04-13T01:59:31.675Z,99.48
2019-04-13T02:00:31.703Z,99.29
2019-04-13T02:01:31.705Z,99.39
2019-04-13T02:02:31.707Z,99.39
2019-04-13T02:03:31.728Z,99.20
2019-04-13T02:04:31.714Z,98.72
2019-04-13T02:05:31.742Z,97.97
2019-04-13T02:06:31.735Z,97.59
2019-04-13T02:07:31.758Z,97.40
2019-04-13T02:08:31.764Z,97.59
2019-04-13T02:09:31.762Z,96.92
2019-04-13T02:10:31.767Z,96.45
2019-04-13T02:11:31.801Z,95.31
2019-04-13T02:12:31.788Z,96.26
2019-04-13T02:13:31.802Z,96.17
2019-04-13T02:14:32.012Z,95.50
2019-04-13T02:15:31.841Z,95.03
2019-04-13T02:16:31.816Z,94.93
2019-04-13T02:17:31.842Z,95.31
2019-04-13T02:18:31.851Z,95.03
2019-04-13T02:19:31.859Z,94.27
2019-04-13T02:20:31.875Z,94.65
2019-04-13T02:21:31.880Z,94.65
2019-04-13T02:22:31.873Z,94.65
2019-04-13T02:23:31.893Z,94.65
2019-04-13T02:24:31.887Z,94.27
2019-04-13T02:25:31.909Z,94.27
2019-04-13T02:26:31.920Z,93.61
2019-04-13T02:27:31.928Z,93.61
2019-04-13T02:28:31.942Z,93.51
2019-04-13T02:29:31.929Z,92.94
2019-04-13T02:30:31.986Z,93.80
2019-04-13T02:31:31.966Z,92.94
2019-04-13T02:32:31.978Z,92.38
2019-04-13T02:33:31.988Z,92.57
2019-04-13T02:34:32.041Z,92.43
2019-04-13T02:35:36.100Z,92.99
2019-04-13T02:36:32.009Z,92.90
2019-04-13T02:37:32.058Z,92.90
2019-04-13T02:38:32.028Z,92.33
2019-04-13T02:39:32.056Z,92.33
2019-04-13T02:40:32.025Z,92.61
2019-04-13T02:41:32.038Z,92.33
2019-04-13T02:42:32.060Z,92.80
2019-04-13T02:43:32.063Z,93.27
2019-04-13T02:44:32.060Z,92.80
2019-04-13T02:45:32.071Z,92.71
2019-04-13T02:46:32.091Z,92.99
2019-04-13T02:47:32.087Z,93.56
2019-04-13T02:48:32.169Z,93.56
2019-04-13T02:49:32.112Z,94.04
2019-04-13T02:50:32.123Z,93.27
2019-04-13T02:51:32.120Z,92.71
2019-04-13T02:52:32.150Z,92.33
2019-04-13T02:53:32.149Z,92.43
2019-04-13T02:54:32.143Z,92.52
2019-04-13T02:55:32.173Z,92.80
2019-04-13T02:56:32.166Z,93.08
2019-04-13T02:57:32.169Z,92.33
2019-04-13T02:58:32.194Z,92.43
2019-04-13T02:59:32.220Z,92.33
2019-04-13T03:00:32.206Z,93.08
2019-04-13T03:01:32.220Z,92.99
2019-04-13T03:02:32.209Z,93.08
2019-04-13T03:03:32.219Z,92.52
2019-04-13T03:04:32.224Z,92.99
2019-04-13T03:05:32.235Z,92.61
2019-04-13T03:06:32.255Z,93.56
2019-04-13T03:07:32.255Z,93.56
2019-04-13T03:08:32.288Z,93.84
2019-04-13T03:09:32.284Z,93.75
2019-04-13T03:10:32.288Z,94.60
2019-04-13T03:11:32.296Z,94.51
2019-04-13T03:12:32.291Z,94.23
2019-04-13T03:13:32.328Z,94.51
2019-04-13T03:14:32.321Z,94.51
2019-04-13T03:15:32.317Z,94.42
2019-04-13T03:16:32.399Z,94.98
2019-04-13T03:17:32.384Z,95.17
2019-04-13T03:18:32.427Z,94.79
2019-04-13T03:19:32.360Z,94.98
2019-04-13T03:20:32.357Z,94.89
2019-04-13T03:21:32.371Z,94.89
2019-04-13T03:22:32.425Z,94.79
2019-04-13T03:23:32.421Z,94.98
2019-04-13T03:24:32.406Z,95.45
2019-04-13T03:25:32.411Z,96.12
2019-04-13T03:26:32.425Z,96.07
2019-04-13T03:27:32.414Z,95.59
2019-04-13T03:28:32.420Z,95.50
2019-04-13T03:29:32.449Z,95.50
2019-04-13T03:30:32.453Z,95.88
2019-04-13T03:31:32.452Z,95.40
2019-04-13T03:32:32.469Z,95.40
2019-04-13T03:33:32.459Z,95.97
2019-04-13T03:34:32.490Z,96.07
2019-04-13T03:35:32.497Z,96.07
2019-04-13T03:36:32.483Z,96.16
2019-04-13T03:37:32.502Z,96.07
2019-04-13T03:38:32.520Z,96.64
2019-04-13T03:39:32.516Z,96.26
2019-04-13T03:40:32.530Z,96.64
2019-04-13T03:41:32.528Z,96.64
2019-04-13T03:42:32.541Z,96.45
2019-04-13T03:43:32.544Z,97.30
2019-04-13T03:44:32.573Z,96.73
2019-04-13T03:45:32.583Z,97.20
2019-04-13T03:46:32.584Z,96.45
2019-04-13T03:47:32.601Z,96.54
2019-04-13T03:48:32.598Z,96.45
2019-04-13T03:49:32.691Z,96.73
2019-04-13T03:50:32.620Z,97.30
2019-04-13T03:51:32.619Z,96.92
2019-04-13T03:52:32.613Z,96.73
2019-04-13T03:53:32.632Z,96.54
2019-04-13T03:54:32.645Z,96.45
2019-04-13T03:55:32.642Z,97.49
2019-04-13T03:56:32.663Z,97.58
2019-04-13T03:57:32.654Z,97.20
2019-04-13T03:58:32.665Z,96.64
2019-04-13T03:59:32.692Z,96.92
2019-04-13T04:00:32.694Z,96.45
2019-04-13T04:01:32.701Z,96.07
2019-04-13T04:02:32.702Z,96.73
2019-04-13T04:03:32.743Z,96.64
2019-04-13T04:04:32.715Z,97.58
2019-04-13T04:05:32.723Z,96.26
2019-04-13T04:06:32.739Z,97.20
2019-04-13T04:07:32.736Z,97.58
2019-04-13T04:08:32.750Z,96.45
2019-04-13T04:09:32.742Z,96.73
2019-04-13T04:10:32.750Z,96.64
2019-04-13T04:11:32.782Z,97.20
2019-04-13T04:12:32.784Z,97.30
2019-04-13T04:13:32.789Z,96.45
2019-04-13T04:14:32.783Z,95.97
2019-04-13T04:15:32.804Z,95.69
2019-04-13T04:16:32.852Z,96.16
2019-04-13T04:17:32.804Z,96.16
2019-04-13T04:18:32.812Z,95.97
2019-04-13T04:19:32.837Z,96.07
2019-04-13T04:20:32.848Z,96.64
2019-04-13T04:21:32.839Z,96.54
2019-04-13T04:22:32.896Z,96.64
2019-04-13T04:23:32.922Z,96.73
2019-04-13T04:24:32.864Z,96.45
2019-04-13T04:25:32.880Z,96.54
2019-04-13T04:26:32.894Z,96.92
2019-04-13T04:27:32.897Z,96.45
2019-04-13T04:28:32.893Z,97.49
2019-04-13T04:29:32.902Z,96.45
2019-04-13T04:30:32.921Z,96.64
2019-04-13T04:31:32.934Z,97.20
2019-04-13T04:32:32.936Z,97.49
2019-04-13T04:33:32.937Z,97.68
2019-04-13T04:34:32.942Z,97.58
2019-04-13T04:35:32.973Z,97.68
2019-04-13T04:36:32.955Z,97.49
2019-04-13T04:37:32.966Z,97.87
2019-04-13T04:38:32.980Z,97.87
2019-04-13T04:39:32.995Z,97.77
2019-04-13T04:40:35.237Z,98.44
2019-04-13T04:41:33.013Z,98.44
2019-04-13T04:42:33.021Z,97.77
2019-04-13T04:43:33.076Z,98.63
2019-04-13T04:44:33.030Z,98.06
2019-04-13T04:45:33.025Z,97.96
2019-04-13T04:46:33.057Z,97.96
2019-04-13T04:47:33.053Z,98.82
2019-04-13T04:48:33.051Z,98.25
2019-04-13T04:49:33.058Z,98.53
2019-04-13T04:50:33.068Z,98.53
2019-04-13T04:51:33.075Z,99.10
2019-04-13T04:52:33.098Z,98.82
2019-04-13T04:53:33.090Z,98.53
2019-04-13T04:54:33.102Z,98.44
2019-04-13T04:55:33.104Z,98.44
2019-04-13T04:56:33.130Z,97.87
2019-04-13T04:57:33.133Z,98.53
2019-04-13T04:58:33.157Z,98.44
2019-04-13T04:59:33.158Z,98.63
2019-04-13T05:00:33.148Z,99.01
2019-04-13T05:01:33.153Z,98.72
2019-04-13T05:02:33.175Z,98.82
2019-04-13T05:03:33.188Z,99.19
2019-04-13T05:04:33.177Z,99.99
2019-04-13T05:05:33.201Z,99.99
2019-04-13T05:06:35.638Z,99.76
2019-04-13T05:07:33.204Z,99.66
2019-04-13T05:08:33.220Z,99.57
2019-04-13T05:09:33.227Z,99.01
2019-04-13T05:10:33.225Z,98.91
2019-04-13T05:11:33.248Z,99.66
2019-04-13T05:12:33.250Z,99.01
2019-04-13T05:13:33.265Z,99.66
2019-04-13T05:14:33.258Z,99.95
2019-04-13T05:15:33.285Z,99.57
2019-04-13T05:16:33.278Z,99.38
2019-04-13T05:17:33.374Z,99.10
2019-04-13T05:18:33.289Z,99.57
2019-04-13T05:19:33.304Z,99.57
2019-04-13T05:20:33.311Z,99.29
2019-04-13T05:21:33.315Z,99.76
2019-04-13T05:22:33.323Z,99.29
2019-04-13T05:23:33.327Z,99.95
2019-04-13T05:24:33.339Z,99.66
2019-04-13T05:25:33.347Z,99.48
2019-04-13T05:26:33.409Z,99.57
2019-04-13T05:27:33.392Z,99.99
2019-04-13T05:28:33.378Z,99.99
2019-04-13T05:29:33.403Z,99.99
2019-04-13T05:30:33.443Z,99.99
2019-04-13T05:31:33.415Z,99.99
2019-04-13T05:32:33.420Z,99.99
2019-04-13T05:33:33.413Z,99.95
2019-04-13T05:34:33.430Z,99.99
2019-04-13T05:35:33.430Z,99.99
2019-04-13T05:36:33.450Z,99.99
2019-04-13T05:37:33.457Z,99.76
2019-04-13T05:38:33.454Z,99.66
2019-04-13T05:39:33.471Z,99.76
2019-04-13T05:40:33.469Z,99.66
2019-04-13T05:41:33.471Z,99.99
2019-04-13T05:42:33.477Z,99.76
2019-04-13T05:43:33.500Z,99.76
2019-04-13T05:44:33.496Z,99.99
2019-04-13T05:45:33.517Z,99.99
2019-04-13T05:46:33.525Z,99.99
2019-04-13T05:47:33.541Z,99.99
2019-04-13T05:48:33.536Z,99.99
2019-04-13T05:49:33.555Z,99.99
2019-04-13T05:50:33.562Z,99.99
2019-04-13T05:51:33.561Z,99.99
2019-04-13T05:52:33.562Z,99.99
2019-04-13T05:53:33.585Z,99.99
2019-04-13T05:54:33.582Z,99.99
2019-04-13T05:55:33.599Z,99.99
2019-04-13T05:56:33.609Z,99.99
2019-04-13T05:57:34.423Z,99.99
2019-04-13T05:58:33.623Z,99.99
2019-04-13T05:59:33.637Z,99.99
2019-04-13T06:00:33.681Z,99.99
2019-04-13T06:01:33.668Z,99.99
2019-04-13T06:02:35.568Z,99.99
2019-04-13T06:03:33.669Z,99.99
2019-04-13T06:04:33.680Z,99.99
2019-04-13T06:05:33.677Z,99.99
2019-04-13T06:06:33.687Z,99.99
2019-04-13T06:07:33.684Z,99.99
2019-04-13T06:08:35.987Z,99.99
2019-04-13T06:09:33.701Z,99.99
2019-04-13T06:10:33.712Z,99.99
2019-04-13T06:11:35.794Z,99.99
2019-04-13T06:12:33.731Z,99.99
2019-04-13T06:13:33.731Z,99.99
2019-04-13T06:14:33.758Z,99.99
2019-04-13T06:15:34.117Z,99.99
2019-04-13T06:16:33.771Z,99.99
2019-04-13T06:17:33.777Z,99.99
2019-04-13T06:18:33.777Z,99.99
2019-04-13T06:19:34.183Z,99.99
2019-04-13T06:20:33.824Z,99.99
2019-04-13T06:21:33.814Z,99.99
2019-04-13T06:22:33.805Z,99.99
2019-04-13T06:23:33.827Z,99.99
2019-04-13T06:24:33.844Z,99.99
2019-04-13T06:25:33.843Z,99.99
2019-04-13T06:26:33.848Z,99.99
2019-04-13T06:27:33.847Z,99.99
2019-04-13T06:28:33.855Z,99.99
2019-04-13T06:30:33.891Z,99.99
2019-04-13T06:31:33.893Z,99.99
2019-04-13T06:32:33.908Z,99.99
2019-04-13T06:33:33.924Z,99.99
2019-04-13T06:34:33.913Z,99.86
2019-04-13T06:35:33.933Z,99.99
2019-04-13T06:36:33.932Z,99.99
2019-04-13T06:37:33.945Z,99.99
2019-04-13T06:38:33.960Z,99.99
2019-04-13T06:39:35.123Z,99.99
2019-04-13T06:40:33.980Z,99.86
2019-04-13T06:41:34.830Z,99.99
2019-04-13T06:42:33.990Z,99.96
2019-04-13T06:43:33.997Z,99.99
2019-04-13T06:44:36.273Z,99.99
2019-04-13T06:45:34.022Z,99.99
2019-04-13T06:46:34.031Z,99.99
2019-04-13T06:47:34.030Z,99.99
2019-04-13T06:48:34.566Z,99.99
2019-04-13T06:49:34.087Z,99.99
2019-04-13T06:50:34.081Z,99.99
2019-04-13T06:51:34.074Z,99.99
2019-04-13T06:52:36.130Z,99.99
2019-04-13T06:53:38.317Z,99.99
2019-04-13T06:54:34.083Z,99.99
2019-04-13T06:55:34.109Z,99.99
2019-04-13T06:56:34.115Z,99.99
2019-04-13T06:57:34.124Z,99.99
2019-04-13T06:58:34.129Z,99.99
2019-04-13T06:59:36.422Z,99.99
2019-04-13T07:00:34.136Z,99.99
2019-04-13T07:01:34.156Z,99.99
2019-04-13T07:02:34.155Z,99.99
2019-04-13T07:03:34.253Z,99.77
2019-04-13T07:04:34.447Z,99.96
2019-04-13T07:05:34.183Z,99.99
2019-04-13T07:06:34.185Z,99.99
2019-04-13T07:07:45.097Z,99.99
2019-04-13T07:08:38.449Z,99.77
2019-04-13T07:09:40.450Z,99.58
2019-04-13T07:10:43.827Z,99.99
2019-04-13T07:11:34.282Z,99.99
2019-04-13T07:12:34.247Z,99.99
2019-04-13T07:13:34.253Z,99.99
2019-04-13T07:14:34.256Z,99.63
2019-04-13T07:15:45.527Z,99.15
2019-04-13T07:16:34.290Z,99.44
2019-04-13T07:17:34.288Z,99.06
2019-04-13T07:18:36.060Z,97.83
2019-04-13T07:19:34.312Z,97.92
2019-04-13T07:20:34.338Z,98.11
2019-04-13T07:21:34.337Z,98.21
2019-04-13T07:22:34.344Z,98.11
2019-04-13T07:23:34.347Z,98.39
2019-04-13T07:24:34.356Z,98.02
2019-04-13T07:25:34.366Z,98.02
2019-04-13T07:26:34.391Z,99.53
2019-04-13T07:27:34.394Z,99.91
2019-04-13T07:28:34.391Z,99.53
2019-04-13T07:29:34.402Z,99.30
2019-04-13T07:30:34.411Z,97.83
2019-04-13T07:31:34.425Z,97.59
2019-04-13T07:32:34.747Z,98.25
2019-04-13T07:33:34.461Z,97.78
2019-04-13T07:34:34.620Z,98.16
2019-04-13T07:35:36.755Z,97.50
2019-04-13T07:36:34.469Z,97.12
2019-04-13T07:37:37.066Z,96.92
2019-04-13T07:38:34.492Z,96.92
2019-04-13T07:39:34.497Z,97.12
2019-04-13T07:40:34.510Z,96.17
2019-04-13T07:41:34.526Z,96.45
2019-04-13T07:42:34.531Z,97.02
2019-04-13T07:43:34.546Z,96.92
2019-04-13T07:44:34.547Z,96.92
2019-04-13T07:45:35.394Z,96.17
2019-04-13T07:46:34.585Z,96.55
2019-04-13T07:47:34.643Z,96.26
2019-04-13T07:48:34.636Z,96.26
2019-04-13T07:49:34.650Z,97.12
2019-04-13T07:50:36.768Z,97.69
2019-04-13T07:51:34.636Z,98.44
2019-04-13T07:52:34.635Z,97.59
2019-04-13T07:53:35.215Z,97.59
2019-04-13T07:54:34.655Z,98.16
2019-04-13T07:55:36.356Z,97.83
2019-04-13T07:56:34.672Z,98.73
2019-04-13T07:57:34.956Z,98.11
2019-04-13T07:58:34.699Z,98.49
2019-04-13T07:59:34.729Z,98.87
2019-04-13T08:00:34.714Z,99.06
2019-04-13T08:01:34.726Z,99.63
2019-04-13T08:02:34.731Z,99.82
2019-04-13T08:03:34.753Z,99.99
2019-04-13T08:04:34.757Z,99.99
2019-04-13T08:05:34.754Z,99.99
2019-04-13T08:06:36.793Z,99.99
2019-04-13T08:07:34.925Z,99.99
2019-04-13T08:08:39.943Z,99.99
2019-04-13T08:09:34.793Z,99.63
2019-04-13T08:10:34.824Z,99.99
2019-04-13T08:11:34.829Z,99.77
2019-04-13T08:12:34.881Z,98.73
2019-04-13T08:13:34.832Z,98.07
2019-04-13T08:14:34.849Z,97.88
2019-04-13T08:15:34.856Z,98.16
2019-04-13T08:16:34.866Z,97.50
2019-04-13T08:17:34.870Z,96.92
2019-04-13T08:18:34.891Z,96.08
2019-04-13T08:19:34.889Z,95.12
2019-04-13T08:20:34.901Z,94.56
2019-04-13T08:21:34.909Z,93.89
2019-04-13T08:22:36.716Z,94.37
2019-04-13T08:23:34.938Z,94.93
2019-04-13T08:24:34.943Z,94.65
2019-04-13T08:25:37.083Z,94.08
2019-04-13T08:26:34.967Z,93.99
2019-04-13T08:27:35.012Z,94.18
2019-04-13T08:28:34.988Z,93.99
2019-04-13T08:29:35.003Z,93.80
2019-04-13T08:30:36.025Z,94.08
2019-04-13T08:31:35.011Z,93.61
2019-04-13T08:32:35.866Z,93.04
2019-04-13T08:33:35.033Z,93.80
2019-04-13T08:34:35.126Z,93.23
2019-04-13T08:35:35.052Z,93.04
2019-04-13T08:36:35.063Z,93.04
2019-04-13T08:37:37.723Z,92.76
2019-04-13T08:38:35.086Z,93.13
2019-04-13T08:39:35.138Z,92.57
2019-04-13T08:40:35.103Z,93.04
2019-04-13T08:41:35.150Z,93.08
2019-04-13T08:42:35.169Z,92.80
2019-04-13T08:43:35.146Z,92.71
2019-04-13T08:44:36.766Z,92.33
2019-04-13T08:45:35.153Z,91.00
2019-04-13T08:46:35.181Z,90.43
2019-04-13T08:47:35.179Z,91.28
2019-04-13T08:48:35.191Z,90.05
2019-04-13T08:49:35.197Z,89.67
2019-04-13T08:50:35.829Z,89.39
2019-04-13T08:51:35.212Z,88.62
2019-04-13T08:52:35.226Z,88.53
2019-04-13T08:53:35.242Z,88.15
2019-04-13T08:54:35.293Z,88.34
2019-04-13T08:55:35.261Z,88.81
2019-04-13T08:56:35.379Z,89.67
2019-04-13T08:57:35.312Z,88.53
2019-04-13T08:58:35.291Z,89.29
2019-04-13T08:59:35.311Z,89.76
2019-04-13T09:00:35.319Z,90.24
2019-04-13T09:01:35.320Z,89.20
2019-04-13T09:02:35.482Z,89.76
2019-04-13T09:03:35.350Z,89.67
2019-04-13T09:04:35.356Z,89.67
2019-04-13T09:05:35.367Z,89.48
2019-04-13T09:06:35.370Z,89.29
2019-04-13T09:07:36.066Z,89.67
2019-04-13T09:08:35.383Z,89.67
2019-04-13T09:09:37.348Z,88.91
2019-04-13T09:10:35.405Z,89.58
2019-04-13T09:11:35.433Z,89.76
2019-04-13T09:12:35.501Z,90.05
2019-04-13T09:13:36.066Z,90.00
2019-04-13T09:14:35.800Z,90.57
2019-04-13T09:15:35.457Z,90.67
2019-04-13T09:16:35.471Z,89.43
2019-04-13T09:17:35.504Z,89.81
2019-04-13T09:18:35.548Z,89.43
2019-04-13T09:19:39.463Z,89.06
2019-04-13T09:20:37.330Z,88.96
2019-04-13T09:21:35.521Z,88.01
2019-04-13T09:22:35.704Z,86.87
2019-04-13T09:23:36.992Z,86.40
2019-04-13T09:24:35.556Z,86.21
2019-04-13T09:25:35.572Z,86.63
2019-04-13T09:26:36.608Z,86.97
2019-04-13T09:27:38.349Z,87.73
2019-04-13T09:28:35.625Z,87.77
2019-04-13T09:29:35.597Z,87.20
2019-04-13T09:30:35.740Z,87.87
2019-04-13T09:31:35.617Z,88.43
2019-04-13T09:32:35.633Z,87.96
2019-04-13T09:33:35.777Z,85.78
2019-04-13T09:34:35.665Z,85.49
2019-04-13T09:35:35.677Z,85.30
2019-04-13T09:36:35.672Z,86.16
2019-04-13T09:37:35.682Z,85.11
2019-04-13T09:38:42.140Z,85.11
2019-04-13T09:39:35.727Z,85.02
2019-04-13T09:40:35.712Z,84.45
2019-04-13T09:41:36.521Z,84.45
2019-04-13T09:42:35.728Z,84.55
2019-04-13T09:43:35.743Z,84.36
2019-04-13T09:44:35.748Z,85.21
2019-04-13T09:45:36.189Z,85.78
2019-04-13T09:46:37.575Z,85.78
2019-04-13T09:47:35.779Z,86.07
2019-04-13T09:48:35.816Z,84.74
2019-04-13T09:49:35.800Z,84.55
2019-04-13T09:50:36.944Z,85.11
2019-04-13T09:51:39.655Z,86.07
2019-04-13T09:52:35.847Z,86.25
2019-04-13T09:53:35.898Z,85.11
2019-04-13T09:54:35.863Z,84.92
2019-04-13T09:55:35.854Z,84.40
2019-04-13T09:56:37.430Z,84.97
2019-04-13T09:57:35.897Z,83.92
2019-04-13T09:58:35.963Z,83.07
2019-04-13T09:59:35.900Z,81.55
2019-04-13T10:00:35.907Z,80.88
2019-04-13T10:01:36.113Z,80.79
2019-04-13T10:02:35.941Z,80.03
2019-04-13T10:03:39.226Z,80.03
2019-04-13T10:04:35.994Z,79.84
2019-04-13T10:05:35.964Z,78.99
2019-04-13T10:06:35.972Z,77.37
2019-04-13T10:07:35.982Z,75.19
2019-04-13T10:08:35.992Z,74.15
2019-04-13T10:09:35.999Z,73.76
2019-04-13T10:10:36.014Z,73.42
2019-04-13T10:11:36.021Z,72.19
2019-04-13T10:12:36.033Z,71.81
2019-04-13T10:13:36.091Z,72.00
2019-04-13T10:14:36.907Z,71.71
2019-04-13T10:15:36.067Z,71.71
2019-04-13T10:16:36.084Z,71.37
2019-04-13T10:17:36.091Z,70.79
2019-04-13T10:18:36.122Z,70.04
2019-04-13T10:19:36.128Z,69.18
2019-04-13T10:20:36.131Z,69.50
2019-04-13T10:21:36.133Z,68.74
2019-04-13T10:22:36.146Z,68.07
2019-04-13T10:23:36.154Z,67.41
2019-04-13T10:24:36.179Z,66.27
2019-04-13T10:25:38.442Z,66.36
2019-04-13T10:26:36.202Z,66.27
2019-04-13T10:27:36.206Z,66.74
2019-04-13T10:28:36.307Z,66.84
2019-04-13T10:29:36.233Z,66.84
2019-04-13T10:30:36.250Z,67.00
2019-04-13T10:31:36.250Z,67.28
2019-04-13T10:32:36.272Z,67.76
2019-04-13T10:33:36.281Z,68.23
2019-04-13T10:34:36.291Z,68.42
2019-04-13T10:35:36.303Z,68.52
2019-04-13T10:36:36.306Z,68.39
2019-04-13T10:37:36.323Z,69.18
2019-04-13T10:38:36.333Z,67.85
2019-04-13T10:39:36.384Z,67.94
2019-04-13T10:40:36.370Z,67.19
2019-04-13T10:41:36.376Z,67.28
2019-04-13T10:42:36.382Z,67.66
2019-04-13T10:43:36.398Z,68.33
2019-04-13T10:44:36.426Z,69.27
2019-04-13T10:45:36.423Z,69.75
2019-04-13T10:46:36.439Z,71.04
2019-04-13T10:47:36.445Z,72.47
2019-04-13T10:48:36.458Z,73.96
2019-04-13T10:49:36.457Z,75.00
2019-04-13T10:50:36.482Z,76.04
2019-04-13T10:51:36.485Z,77.18
2019-04-13T10:52:36.501Z,77.84
2019-04-13T10:53:36.505Z,78.19
2019-04-13T10:54:36.516Z,79.14
2019-04-13T10:55:36.534Z,79.99
2019-04-13T10:56:36.544Z,80.94
2019-04-13T10:57:36.552Z,81.32
2019-04-13T10:58:36.561Z,81.74
2019-04-13T10:59:36.582Z,83.88
2019-04-13T11:00:36.606Z,85.63
2019-04-13T11:01:36.599Z,86.96
2019-04-13T11:02:36.605Z,88.62
2019-04-13T11:03:36.624Z,90.33
2019-04-13T11:04:36.640Z,91.09
2019-04-13T11:05:36.631Z,92.14
2019-04-13T11:06:36.697Z,91.94
2019-04-13T11:07:36.667Z,93.37
2019-04-13T11:08:36.662Z,95.74
2019-04-13T11:09:36.694Z,97.55
2019-04-13T11:10:36.697Z,98.97
2019-04-13T11:11:36.716Z,98.02
2019-04-13T11:12:36.705Z,97.45
2019-04-13T11:13:36.759Z,95.55
2019-04-13T11:14:36.728Z,97.36
2019-04-13T11:15:36.800Z,96.31
2019-04-13T11:16:36.755Z,95.93
2019-04-13T11:17:36.762Z,98.21
2019-04-13T11:18:37.585Z,98.45
2019-04-13T11:19:40.294Z,94.84
2019-04-13T11:20:36.798Z,94.18
2019-04-13T11:21:36.843Z,92.75
2019-04-13T11:22:36.816Z,93.13
2019-04-13T11:23:45.113Z,91.14
2019-04-13T11:24:36.838Z,90.66
2019-04-13T11:25:36.849Z,89.09
2019-04-13T11:26:36.856Z,88.90
2019-04-13T11:27:37.585Z,88.34
2019-04-13T11:28:39.230Z,88.71
2019-04-13T11:29:36.945Z,89.00
2019-04-13T11:30:36.920Z,87.76
2019-04-13T11:31:36.917Z,85.20
2019-04-13T11:32:36.926Z,84.72
2019-04-13T11:33:36.944Z,86.47
2019-04-13T11:34:36.968Z,84.44
2019-04-13T11:35:36.984Z,81.44
2019-04-13T11:36:36.973Z,80.35
2019-04-13T11:37:36.989Z,79.92
2019-04-13T11:38:37.014Z,78.11
2019-04-13T11:39:40.564Z,76.88
2019-04-13T11:40:37.027Z,76.12
2019-04-13T11:41:37.030Z,75.26
2019-04-13T11:42:37.045Z,75.07
2019-04-13T11:43:37.053Z,74.69
2019-04-13T11:44:37.071Z,74.60
2019-04-13T11:45:37.093Z,74.07
2019-04-13T11:46:37.154Z,74.60
2019-04-13T11:47:37.109Z,74.60
2019-04-13T11:48:37.119Z,74.51
2019-04-13T11:49:37.134Z,73.84
2019-04-13T11:50:40.015Z,72.89
2019-04-13T11:51:37.149Z,72.60
2019-04-13T11:52:37.161Z,73.36
2019-04-13T11:53:37.180Z,73.18
2019-04-13T11:54:37.192Z,72.60
2019-04-13T11:55:37.197Z,72.64
2019-04-13T11:56:37.984Z,73.11
2019-04-13T11:57:37.221Z,75.30
2019-04-13T11:58:37.231Z,72.26
2019-04-13T11:59:37.244Z,70.89
2019-04-13T12:00:37.264Z,71.56
2019-04-13T12:01:37.272Z,71.94
2019-04-13T12:02:37.298Z,72.32
2019-04-13T12:03:37.306Z,72.99
2019-04-13T12:04:37.300Z,72.99
2019-04-13T12:05:37.330Z,72.55
2019-04-13T12:06:37.329Z,74.35
2019-04-13T12:07:37.341Z,72.35
2019-04-13T12:08:37.354Z,71.02
2019-04-13T12:09:49.191Z,70.07
2019-04-13T12:10:37.377Z,70.36
2019-04-13T12:11:37.388Z,70.49
2019-04-13T12:12:37.404Z,69.31
2019-04-13T12:13:37.405Z,70.36
2019-04-13T12:14:37.421Z,69.98
2019-04-13T12:15:38.763Z,70.45
2019-04-13T12:16:37.452Z,69.31
2019-04-13T12:17:37.460Z,69.25
2019-04-13T12:18:37.474Z,68.68
2019-04-13T12:19:37.477Z,67.73
2019-04-13T12:20:37.492Z,68.11
2019-04-13T12:21:37.541Z,67.92
2019-04-13T12:22:37.518Z,67.98
2019-04-13T12:23:37.536Z,67.79
2019-04-13T12:24:37.548Z,67.98
2019-04-13T12:25:40.186Z,68.74
2019-04-13T12:26:37.586Z,68.74
2019-04-13T12:27:37.577Z,68.55
2019-04-13T12:28:37.581Z,69.12
2019-04-13T12:29:39.293Z,67.98
2019-04-13T12:30:37.615Z,67.60
2019-04-13T12:31:39.266Z,66.46
2019-04-13T12:32:39.523Z,66.39
2019-04-13T12:33:37.640Z,65.92
2019-04-13T12:34:37.650Z,64.87
2019-04-13T12:35:37.728Z,64.50
2019-04-13T12:36:37.678Z,65.73
2019-04-13T12:37:37.698Z,66.14
2019-04-13T12:38:49.418Z,65.10
2019-04-13T12:40:37.730Z,63.39
2019-04-13T12:41:37.757Z,63.17
2019-04-13T12:42:37.751Z,60.50
2019-04-13T12:43:37.778Z,59.55
2019-04-13T12:44:38.367Z,60.02
2019-04-13T12:45:37.797Z,60.91
2019-04-13T12:46:37.806Z,60.34
2019-04-13T12:47:42.186Z,60.18
2019-04-13T12:48:37.838Z,59.23
2019-04-13T12:49:37.840Z,58.94
2019-04-13T12:50:37.862Z,59.10
2019-04-13T12:51:37.905Z,59.20
2019-04-13T12:52:37.880Z,59.77
2019-04-13T12:53:37.895Z,60.34
2019-04-13T12:54:38.030Z,59.20
2019-04-13T12:55:37.915Z,58.91